sensor_id;sensor_type;location;lat;lon;timestamp;P1;durP1;ratioP1;P2;durP2;ratioP2
45252;SDS011;63171;50.520;30.486;2023-05-15T00:05:37;13.10;;;9.18;;
45252;SDS011;63171;50.520;30.486;2023-05-15T00:06:28;11.57;;;9.13;;
45252;SDS011;63171;50.520;30.486;2023-05-15T00:07:18;11.88;;;9.00;;
45252;SDS011;63171;50.520;30.486;2023-05-15T00:08:08;12.15;;;8.43;;
45252;SDS011;63171;50.520;30.486;2023-05-15T00:08:58;16.70;;;10.88;;
45252;SDS011;63171;50.520;30.486;2023-05-15T00:09:49;12.93;;;10.23;;
45252;SDS011;63171;50.520;30.486;2023-05-15T00:10:39;16.48;;;9.75;;
45252;SDS011;63171;50.520;30.486;2023-05-15T00:11:30;11.70;;;9.86;;
45252;SDS011;63171;50.520;30.486;2023-05-15T00:12:19;14.55;;;9.68;;
45252;SDS011;63171;50.520;30.486;2023-05-15T00:13:10;13.15;;;8.98;;
45252;SDS011;63171;50.520;30.486;2023-05-15T00:14:00;18.08;;;10.20;;
45252;SDS011;63171;50.520;30.486;2023-05-15T00:14:50;16.25;;;8.98;;
45252;SDS011;63171;50.520;30.486;2023-05-15T00:15:40;9.90;;;8.85;;
45252;SDS011;63171;50.520;30.486;2023-05-15T00:16:30;12.55;;;9.52;;
45252;SDS011;63171;50.520;30.486;2023-05-15T00:17:20;12.77;;;9.15;;
45252;SDS011;63171;50.520;30.486;2023-05-15T00:18:10;11.35;;;8.60;;
45252;SDS011;63171;50.520;30.486;2023-05-15T00:19:00;16.50;;;8.73;;
45252;SDS011;63171;50.520;30.486;2023-05-15T00:19:51;14.07;;;8.77;;
45252;SDS011;63171;50.520;30.486;2023-05-15T00:20:48;14.35;;;9.35;;
45252;SDS011;63171;50.520;30.486;2023-05-15T00:21:39;19.00;;;9.93;;
45252;SDS011;63171;50.520;30.486;2023-05-15T00:22:28;15.70;;;8.93;;
45252;SDS011;63171;50.520;30.486;2023-05-15T00:23:19;11.60;;;9.60;;
45252;SDS011;63171;50.520;30.486;2023-05-15T00:24:09;11.98;;;9.95;;
45252;SDS011;63171;50.520;30.486;2023-05-15T00:25:00;10.57;;;8.98;;
45252;SDS011;63171;50.520;30.486;2023-05-15T00:25:49;14.18;;;9.60;;
45252;SDS011;63171;50.520;30.486;2023-05-15T00:26:39;18.48;;;9.57;;
45252;SDS011;63171;50.520;30.486;2023-05-15T00:27:29;17.15;;;10.80;;
45252;SDS011;63171;50.520;30.486;2023-05-15T00:28:19;10.68;;;9.63;;
45252;SDS011;63171;50.520;30.486;2023-05-15T00:29:10;11.32;;;9.65;;
45252;SDS011;63171;50.520;30.486;2023-05-15T00:30:01;11.57;;;9.10;;
45252;SDS011;63171;50.520;30.486;2023-05-15T00:30:51;11.93;;;9.73;;
45252;SDS011;63171;50.520;30.486;2023-05-15T00:31:42;11.57;;;8.65;;
45252;SDS011;63171;50.520;30.486;2023-05-15T00:32:31;12.63;;;9.40;;
45252;SDS011;63171;50.520;30.486;2023-05-15T00:33:22;10.15;;;8.88;;
45252;SDS011;63171;50.520;30.486;2023-05-15T00:34:12;11.73;;;8.32;;
45252;SDS011;63171;50.520;30.486;2023-05-15T00:35:03;11.88;;;9.40;;
45252;SDS011;63171;50.520;30.486;2023-05-15T00:35:55;18.33;;;9.35;;
45252;SDS011;63171;50.520;30.486;2023-05-15T00:36:46;11.30;;;8.60;;
45252;SDS011;63171;50.520;30.486;2023-05-15T00:37:36;13.25;;;8.45;;
45252;SDS011;63171;50.520;30.486;2023-05-15T00:38:27;8.82;;;7.43;;
45252;SDS011;63171;50.520;30.486;2023-05-15T00:39:16;18.05;;;9.50;;
45252;SDS011;63171;50.520;30.486;2023-05-15T00:40:08;14.38;;;8.25;;
45252;SDS011;63171;50.520;30.486;2023-05-15T00:40:59;11.10;;;8.05;;
45252;SDS011;63171;50.520;30.486;2023-05-15T00:41:50;10.00;;;6.94;;
45252;SDS011;63171;50.520;30.486;2023-05-15T00:42:41;12.80;;;7.65;;
45252;SDS011;63171;50.520;30.486;2023-05-15T00:43:33;12.75;;;7.55;;
45252;SDS011;63171;50.520;30.486;2023-05-15T00:44:24;9.73;;;7.47;;
45252;SDS011;63171;50.520;30.486;2023-05-15T00:45:18;8.40;;;6.78;;
45252;SDS011;63171;50.520;30.486;2023-05-15T00:46:09;12.27;;;6.50;;
45252;SDS011;63171;50.520;30.486;2023-05-15T00:47:02;8.38;;;6.85;;
45252;SDS011;63171;50.520;30.486;2023-05-15T00:47:55;10.00;;;9.00;;
45252;SDS011;63171;50.520;30.486;2023-05-15T00:48:47;11.10;;;8.60;;
45252;SDS011;63171;50.520;30.486;2023-05-15T00:49:40;12.38;;;8.60;;
45252;SDS011;63171;50.520;30.486;2023-05-15T00:50:31;12.38;;;8.50;;
45252;SDS011;63171;50.520;30.486;2023-05-15T00:51:24;11.05;;;7.28;;
45252;SDS011;63171;50.520;30.486;2023-05-15T00:52:15;8.25;;;7.45;;
45252;SDS011;63171;50.520;30.486;2023-05-15T00:53:07;7.65;;;6.85;;
45252;SDS011;63171;50.520;30.486;2023-05-15T00:53:58;8.30;;;6.43;;
45252;SDS011;63171;50.520;30.486;2023-05-15T00:54:48;8.15;;;6.60;;
45252;SDS011;63171;50.520;30.486;2023-05-15T00:55:38;8.45;;;6.47;;
45252;SDS011;63171;50.520;30.486;2023-05-15T00:56:30;9.63;;;7.88;;
45252;SDS011;63171;50.520;30.486;2023-05-15T00:57:21;10.15;;;7.65;;
45252;SDS011;63171;50.520;30.486;2023-05-15T00:58:13;9.25;;;7.82;;
45252;SDS011;63171;50.520;30.486;2023-05-15T00:59:04;8.70;;;7.00;;
45252;SDS011;63171;50.520;30.486;2023-05-15T00:59:56;9.55;;;7.47;;
45252;SDS011;63171;50.520;30.486;2023-05-15T01:00:46;9.14;;;7.88;;
45252;SDS011;63171;50.520;30.486;2023-05-15T01:01:39;8.84;;;7.40;;
45252;SDS011;63171;50.520;30.486;2023-05-15T01:02:29;10.23;;;8.93;;
45252;SDS011;63171;50.520;30.486;2023-05-15T01:03:19;8.52;;;6.75;;
45252;SDS011;63171;50.520;30.486;2023-05-15T01:04:10;8.82;;;7.53;;
45252;SDS011;63171;50.520;30.486;2023-05-15T01:05:00;9.50;;;7.65;;
45252;SDS011;63171;50.520;30.486;2023-05-15T01:05:51;9.55;;;7.28;;
45252;SDS011;63171;50.520;30.486;2023-05-15T01:06:42;8.68;;;7.82;;
45252;SDS011;63171;50.520;30.486;2023-05-15T01:07:34;11.02;;;8.10;;
45252;SDS011;63171;50.520;30.486;2023-05-15T01:08:34;13.40;;;7.97;;
45252;SDS011;63171;50.520;30.486;2023-05-15T01:09:28;12.05;;;7.60;;
45252;SDS011;63171;50.520;30.486;2023-05-15T01:10:20;10.43;;;7.72;;
45252;SDS011;63171;50.520;30.486;2023-05-15T01:11:11;11.82;;;8.05;;
45252;SDS011;63171;50.520;30.486;2023-05-15T01:12:01;9.05;;;7.43;;
45252;SDS011;63171;50.520;30.486;2023-05-15T01:12:55;10.30;;;8.85;;
45252;SDS011;63171;50.520;30.486;2023-05-15T01:13:48;10.60;;;8.00;;
45252;SDS011;63171;50.520;30.486;2023-05-15T01:14:37;11.43;;;7.43;;
45252;SDS011;63171;50.520;30.486;2023-05-15T01:15:28;8.13;;;7.30;;
45252;SDS011;63171;50.520;30.486;2023-05-15T01:16:20;10.45;;;7.18;;
45252;SDS011;63171;50.520;30.486;2023-05-15T01:17:09;10.30;;;7.70;;
45252;SDS011;63171;50.520;30.486;2023-05-15T01:18:00;15.60;;;7.80;;
45252;SDS011;63171;50.520;30.486;2023-05-15T01:18:51;8.36;;;7.14;;
45252;SDS011;63171;50.520;30.486;2023-05-15T01:19:42;9.48;;;8.50;;
45252;SDS011;63171;50.520;30.486;2023-05-15T01:20:33;8.82;;;7.78;;
45252;SDS011;63171;50.520;30.486;2023-05-15T01:23:26;9.23;;;7.07;;
45252;SDS011;63171;50.520;30.486;2023-05-15T01:24:40;10.10;;;7.43;;
45252;SDS011;63171;50.520;30.486;2023-05-15T01:26:09;8.70;;;7.80;;
45252;SDS011;63171;50.520;30.486;2023-05-15T01:27:23;8.80;;;7.22;;
45252;SDS011;63171;50.520;30.486;2023-05-15T01:28:17;9.25;;;7.15;;
45252;SDS011;63171;50.520;30.486;2023-05-15T01:29:13;9.40;;;7.16;;
45252;SDS011;63171;50.520;30.486;2023-05-15T01:30:13;8.15;;;7.35;;
45252;SDS011;63171;50.520;30.486;2023-05-15T01:31:09;9.70;;;7.95;;
45252;SDS011;63171;50.520;30.486;2023-05-15T01:32:05;8.94;;;7.08;;
45252;SDS011;63171;50.520;30.486;2023-05-15T01:33:01;10.27;;;7.03;;
45252;SDS011;63171;50.520;30.486;2023-05-15T01:33:55;9.68;;;7.28;;
45252;SDS011;63171;50.520;30.486;2023-05-15T01:34:52;9.36;;;7.42;;
45252;SDS011;63171;50.520;30.486;2023-05-15T01:35:51;8.48;;;7.32;;
45252;SDS011;63171;50.520;30.486;2023-05-15T01:36:45;10.24;;;8.64;;
45252;SDS011;63171;50.520;30.486;2023-05-15T01:37:41;8.15;;;7.22;;
45252;SDS011;63171;50.520;30.486;2023-05-15T01:38:35;12.20;;;7.46;;
45252;SDS011;63171;50.520;30.486;2023-05-15T01:39:27;11.44;;;7.62;;
45252;SDS011;63171;50.520;30.486;2023-05-15T01:40:22;9.98;;;7.20;;
45252;SDS011;63171;50.520;30.486;2023-05-15T01:41:15;8.63;;;7.68;;
45252;SDS011;63171;50.520;30.486;2023-05-15T01:42:12;9.08;;;7.40;;
45252;SDS011;63171;50.520;30.486;2023-05-15T01:43:06;10.14;;;7.02;;
45252;SDS011;63171;50.520;30.486;2023-05-15T01:44:02;10.16;;;7.42;;
45252;SDS011;63171;50.520;30.486;2023-05-15T01:44:56;8.60;;;7.07;;
45252;SDS011;63171;50.520;30.486;2023-05-15T01:45:53;12.86;;;8.26;;
45252;SDS011;63171;50.520;30.486;2023-05-15T01:46:45;8.75;;;7.28;;
45252;SDS011;63171;50.520;30.486;2023-05-15T01:47:40;9.55;;;8.50;;
45252;SDS011;63171;50.520;30.486;2023-05-15T01:48:34;7.45;;;6.75;;
45252;SDS011;63171;50.520;30.486;2023-05-15T01:49:26;8.57;;;6.55;;
45252;SDS011;63171;50.520;30.486;2023-05-15T01:50:16;7.00;;;6.40;;
45252;SDS011;63171;50.520;30.486;2023-05-15T01:51:09;7.10;;;6.42;;
45252;SDS011;63171;50.520;30.486;2023-05-15T01:52:02;8.75;;;7.43;;
45252;SDS011;63171;50.520;30.486;2023-05-15T01:52:58;8.02;;;7.24;;
45252;SDS011;63171;50.520;30.486;2023-05-15T01:53:50;7.72;;;6.48;;
45252;SDS011;63171;50.520;30.486;2023-05-15T01:54:43;7.46;;;6.74;;
45252;SDS011;63171;50.520;30.486;2023-05-15T01:55:35;7.78;;;6.32;;
45252;SDS011;63171;50.520;30.486;2023-05-15T01:56:26;10.58;;;7.28;;
45252;SDS011;63171;50.520;30.486;2023-05-15T01:57:17;8.27;;;6.80;;
45252;SDS011;63171;50.520;30.486;2023-05-15T01:58:11;7.57;;;6.85;;
45252;SDS011;63171;50.520;30.486;2023-05-15T01:59:02;12.77;;;7.50;;
45252;SDS011;63171;50.520;30.486;2023-05-15T01:59:54;8.88;;;8.05;;
45252;SDS011;63171;50.520;30.486;2023-05-15T02:00:46;9.90;;;7.20;;
45252;SDS011;63171;50.520;30.486;2023-05-15T02:01:37;9.65;;;7.80;;
45252;SDS011;63171;50.520;30.486;2023-05-15T02:02:28;8.93;;;7.35;;
45252;SDS011;63171;50.520;30.486;2023-05-15T02:03:19;7.94;;;7.00;;
45252;SDS011;63171;50.520;30.486;2023-05-15T02:04:10;7.05;;;5.82;;
45252;SDS011;63171;50.520;30.486;2023-05-15T02:05:01;6.40;;;5.80;;
45252;SDS011;63171;50.520;30.486;2023-05-15T02:05:53;6.18;;;5.62;;
45252;SDS011;63171;50.520;30.486;2023-05-15T02:06:44;6.85;;;6.25;;
45252;SDS011;63171;50.520;30.486;2023-05-15T02:07:35;9.14;;;7.28;;
45252;SDS011;63171;50.520;30.486;2023-05-15T02:08:27;6.95;;;6.25;;
45252;SDS011;63171;50.520;30.486;2023-05-15T02:09:20;7.70;;;6.10;;
45252;SDS011;63171;50.520;30.486;2023-05-15T02:10:12;7.82;;;6.75;;
45252;SDS011;63171;50.520;30.486;2023-05-15T02:11:08;12.27;;;8.80;;
45252;SDS011;63171;50.520;30.486;2023-05-15T02:12:00;12.50;;;9.95;;
45252;SDS011;63171;50.520;30.486;2023-05-15T02:12:52;11.15;;;9.88;;
45252;SDS011;63171;50.520;30.486;2023-05-15T02:13:46;12.05;;;9.85;;
45252;SDS011;63171;50.520;30.486;2023-05-15T02:14:37;14.75;;;10.07;;
45252;SDS011;63171;50.520;30.486;2023-05-15T02:15:29;11.96;;;9.90;;
45252;SDS011;63171;50.520;30.486;2023-05-15T02:16:20;13.52;;;9.00;;
45252;SDS011;63171;50.520;30.486;2023-05-15T02:17:10;19.98;;;10.50;;
45252;SDS011;63171;50.520;30.486;2023-05-15T02:18:01;17.70;;;10.18;;
45252;SDS011;63171;50.520;30.486;2023-05-15T02:18:51;15.43;;;10.05;;
45252;SDS011;63171;50.520;30.486;2023-05-15T02:19:42;14.65;;;11.27;;
45252;SDS011;63171;50.520;30.486;2023-05-15T02:20:32;11.55;;;9.40;;
45252;SDS011;63171;50.520;30.486;2023-05-15T02:21:23;10.78;;;8.80;;
45252;SDS011;63171;50.520;30.486;2023-05-15T02:22:13;11.05;;;8.48;;
45252;SDS011;63171;50.520;30.486;2023-05-15T02:23:04;12.52;;;9.00;;
45252;SDS011;63171;50.520;30.486;2023-05-15T02:23:54;12.70;;;10.02;;
45252;SDS011;63171;50.520;30.486;2023-05-15T02:24:45;10.68;;;7.80;;
45252;SDS011;63171;50.520;30.486;2023-05-15T02:25:37;11.38;;;8.27;;
45252;SDS011;63171;50.520;30.486;2023-05-15T02:26:35;10.45;;;8.75;;
45252;SDS011;63171;50.520;30.486;2023-05-15T02:27:32;11.92;;;9.38;;
45252;SDS011;63171;50.520;30.486;2023-05-15T02:28:32;9.90;;;8.68;;
45252;SDS011;63171;50.520;30.486;2023-05-15T02:29:30;9.64;;;8.68;;
45252;SDS011;63171;50.520;30.486;2023-05-15T02:30:27;14.90;;;9.00;;
45252;SDS011;63171;50.520;30.486;2023-05-15T02:31:25;10.64;;;6.84;;
45252;SDS011;63171;50.520;30.486;2023-05-15T02:32:25;12.88;;;8.18;;
45252;SDS011;63171;50.520;30.486;2023-05-15T02:33:25;6.50;;;6.00;;
45252;SDS011;63171;50.520;30.486;2023-05-15T02:34:25;9.80;;;7.45;;
45252;SDS011;63171;50.520;30.486;2023-05-15T02:35:24;9.74;;;7.18;;
45252;SDS011;63171;50.520;30.486;2023-05-15T02:36:24;9.18;;;6.56;;
45252;SDS011;63171;50.520;30.486;2023-05-15T02:37:22;10.13;;;7.40;;
45252;SDS011;63171;50.520;30.486;2023-05-15T02:38:18;7.97;;;6.70;;
45252;SDS011;63171;50.520;30.486;2023-05-15T02:39:11;7.93;;;7.13;;
45252;SDS011;63171;50.520;30.486;2023-05-15T02:40:06;10.13;;;7.47;;
45252;SDS011;63171;50.520;30.486;2023-05-15T02:40:57;18.63;;;8.05;;
45252;SDS011;63171;50.520;30.486;2023-05-15T02:41:50;11.32;;;8.30;;
45252;SDS011;63171;50.520;30.486;2023-05-15T02:42:42;9.20;;;7.53;;
45252;SDS011;63171;50.520;30.486;2023-05-15T02:43:34;11.85;;;9.43;;
45252;SDS011;63171;50.520;30.486;2023-05-15T02:45:15;13.77;;;7.57;;
45252;SDS011;63171;50.520;30.486;2023-05-15T02:46:07;10.93;;;8.30;;
45252;SDS011;63171;50.520;30.486;2023-05-15T02:46:56;9.75;;;8.75;;
45252;SDS011;63171;50.520;30.486;2023-05-15T02:47:48;12.30;;;7.55;;
45252;SDS011;63171;50.520;30.486;2023-05-15T02:48:40;11.95;;;8.65;;
45252;SDS011;63171;50.520;30.486;2023-05-15T02:49:31;12.40;;;9.52;;
45252;SDS011;63171;50.520;30.486;2023-05-15T02:50:21;13.02;;;9.25;;
45252;SDS011;63171;50.520;30.486;2023-05-15T02:51:12;14.38;;;9.02;;
45252;SDS011;63171;50.520;30.486;2023-05-15T02:52:02;18.58;;;9.60;;
45252;SDS011;63171;50.520;30.486;2023-05-15T02:53:00;15.65;;;9.65;;
45252;SDS011;63171;50.520;30.486;2023-05-15T02:53:50;10.18;;;8.88;;
45252;SDS011;63171;50.520;30.486;2023-05-15T02:54:41;17.55;;;10.20;;
45252;SDS011;63171;50.520;30.486;2023-05-15T02:55:31;18.33;;;9.43;;
45252;SDS011;63171;50.520;30.486;2023-05-15T02:56:21;15.00;;;10.10;;
45252;SDS011;63171;50.520;30.486;2023-05-15T02:57:12;15.57;;;8.32;;
45252;SDS011;63171;50.520;30.486;2023-05-15T02:58:02;18.60;;;9.45;;
45252;SDS011;63171;50.520;30.486;2023-05-15T02:58:53;13.55;;;8.48;;
45252;SDS011;63171;50.520;30.486;2023-05-15T02:59:44;17.30;;;9.50;;
45252;SDS011;63171;50.520;30.486;2023-05-15T03:00:36;14.20;;;8.82;;
45252;SDS011;63171;50.520;30.486;2023-05-15T03:01:26;15.32;;;9.10;;
45252;SDS011;63171;50.520;30.486;2023-05-15T03:02:16;14.70;;;9.50;;
45252;SDS011;63171;50.520;30.486;2023-05-15T03:03:06;15.52;;;11.63;;
45252;SDS011;63171;50.520;30.486;2023-05-15T03:03:57;17.73;;;12.27;;
45252;SDS011;63171;50.520;30.486;2023-05-15T03:04:47;14.25;;;10.52;;
45252;SDS011;63171;50.520;30.486;2023-05-15T03:05:37;23.67;;;10.73;;
45252;SDS011;63171;50.520;30.486;2023-05-15T03:06:27;14.70;;;9.32;;
45252;SDS011;63171;50.520;30.486;2023-05-15T03:07:19;17.88;;;10.57;;
45252;SDS011;63171;50.520;30.486;2023-05-15T03:08:09;13.93;;;9.48;;
45252;SDS011;63171;50.520;30.486;2023-05-15T03:09:00;15.27;;;9.57;;
45252;SDS011;63171;50.520;30.486;2023-05-15T03:09:50;15.40;;;10.02;;
45252;SDS011;63171;50.520;30.486;2023-05-15T03:10:39;16.80;;;10.65;;
45252;SDS011;63171;50.520;30.486;2023-05-15T03:11:30;22.55;;;11.45;;
45252;SDS011;63171;50.520;30.486;2023-05-15T03:12:20;21.85;;;9.63;;
45252;SDS011;63171;50.520;30.486;2023-05-15T03:13:10;18.70;;;11.10;;
45252;SDS011;63171;50.520;30.486;2023-05-15T03:14:00;25.00;;;12.23;;
45252;SDS011;63171;50.520;30.486;2023-05-15T03:14:51;22.85;;;11.57;;
45252;SDS011;63171;50.520;30.486;2023-05-15T03:15:43;18.90;;;11.27;;
45252;SDS011;63171;50.520;30.486;2023-05-15T03:16:33;19.00;;;10.93;;
45252;SDS011;63171;50.520;30.486;2023-05-15T03:17:24;18.85;;;12.02;;
45252;SDS011;63171;50.520;30.486;2023-05-15T03:18:14;16.23;;;11.07;;
45252;SDS011;63171;50.520;30.486;2023-05-15T03:19:07;19.17;;;10.80;;
45252;SDS011;63171;50.520;30.486;2023-05-15T03:19:56;20.48;;;11.15;;
45252;SDS011;63171;50.520;30.486;2023-05-15T03:20:48;15.82;;;10.57;;
45252;SDS011;63171;50.520;30.486;2023-05-15T03:21:39;17.45;;;10.60;;
45252;SDS011;63171;50.520;30.486;2023-05-15T03:22:29;16.40;;;10.52;;
45252;SDS011;63171;50.520;30.486;2023-05-15T03:23:19;17.63;;;9.82;;
45252;SDS011;63171;50.520;30.486;2023-05-15T03:24:10;15.27;;;11.23;;
45252;SDS011;63171;50.520;30.486;2023-05-15T03:24:59;16.40;;;9.70;;
45252;SDS011;63171;50.520;30.486;2023-05-15T03:25:50;17.48;;;8.60;;
45252;SDS011;63171;50.520;30.486;2023-05-15T03:26:40;15.38;;;9.23;;
45252;SDS011;63171;50.520;30.486;2023-05-15T03:27:32;17.17;;;8.52;;
45252;SDS011;63171;50.520;30.486;2023-05-15T03:28:21;12.18;;;8.13;;
45252;SDS011;63171;50.520;30.486;2023-05-15T03:29:12;11.82;;;8.50;;
45252;SDS011;63171;50.520;30.486;2023-05-15T03:30:02;13.55;;;8.85;;
45252;SDS011;63171;50.520;30.486;2023-05-15T03:30:55;19.15;;;9.32;;
45252;SDS011;63171;50.520;30.486;2023-05-15T03:31:44;11.88;;;7.90;;
45252;SDS011;63171;50.520;30.486;2023-05-15T03:32:35;17.00;;;9.32;;
45252;SDS011;63171;50.520;30.486;2023-05-15T03:33:25;17.75;;;7.85;;
45252;SDS011;63171;50.520;30.486;2023-05-15T03:34:14;21.05;;;8.13;;
45252;SDS011;63171;50.520;30.486;2023-05-15T03:35:05;15.40;;;11.25;;
45252;SDS011;63171;50.520;30.486;2023-05-15T03:36:46;20.58;;;14.25;;
45252;SDS011;63171;50.520;30.486;2023-05-15T03:37:36;24.20;;;18.45;;
45252;SDS011;63171;50.520;30.486;2023-05-15T03:38:26;13.65;;;10.00;;
45252;SDS011;63171;50.520;30.486;2023-05-15T03:39:16;15.00;;;8.68;;
45252;SDS011;63171;50.520;30.486;2023-05-15T03:40:07;14.95;;;8.05;;
45252;SDS011;63171;50.520;30.486;2023-05-15T03:41:00;8.82;;;6.53;;
45252;SDS011;63171;50.520;30.486;2023-05-15T03:41:50;14.38;;;7.28;;
45252;SDS011;63171;50.520;30.486;2023-05-15T03:42:41;15.40;;;6.78;;
45252;SDS011;63171;50.520;30.486;2023-05-15T03:43:30;14.32;;;7.53;;
45252;SDS011;63171;50.520;30.486;2023-05-15T03:44:21;12.32;;;6.45;;
45252;SDS011;63171;50.520;30.486;2023-05-15T03:45:11;11.93;;;7.38;;
45252;SDS011;63171;50.520;30.486;2023-05-15T03:46:03;14.13;;;7.53;;
45252;SDS011;63171;50.520;30.486;2023-05-15T03:46:53;9.70;;;8.30;;
45252;SDS011;63171;50.520;30.486;2023-05-15T03:47:44;15.55;;;7.75;;
45252;SDS011;63171;50.520;30.486;2023-05-15T03:48:34;11.13;;;6.97;;
45252;SDS011;63171;50.520;30.486;2023-05-15T03:49:28;10.70;;;8.15;;
45252;SDS011;63171;50.520;30.486;2023-05-15T03:50:18;10.48;;;7.63;;
45252;SDS011;63171;50.520;30.486;2023-05-15T03:51:09;10.88;;;7.18;;
45252;SDS011;63171;50.520;30.486;2023-05-15T03:51:58;13.02;;;7.40;;
45252;SDS011;63171;50.520;30.486;2023-05-15T03:52:49;24.38;;;7.90;;
45252;SDS011;63171;50.520;30.486;2023-05-15T03:53:40;12.52;;;7.22;;
45252;SDS011;63171;50.520;30.486;2023-05-15T03:54:31;14.20;;;8.20;;
45252;SDS011;63171;50.520;30.486;2023-05-15T03:55:21;11.90;;;7.90;;
45252;SDS011;63171;50.520;30.486;2023-05-15T03:56:12;15.45;;;7.95;;
45252;SDS011;63171;50.520;30.486;2023-05-15T03:57:01;15.90;;;8.43;;
45252;SDS011;63171;50.520;30.486;2023-05-15T03:57:52;10.65;;;7.78;;
45252;SDS011;63171;50.520;30.486;2023-05-15T03:58:42;12.60;;;8.38;;
45252;SDS011;63171;50.520;30.486;2023-05-15T03:59:33;12.23;;;7.68;;
45252;SDS011;63171;50.520;30.486;2023-05-15T04:00:23;10.88;;;7.80;;
45252;SDS011;63171;50.520;30.486;2023-05-15T04:01:15;12.07;;;7.07;;
45252;SDS011;63171;50.520;30.486;2023-05-15T04:02:05;12.00;;;7.80;;
45252;SDS011;63171;50.520;30.486;2023-05-15T04:02:56;10.65;;;7.20;;
45252;SDS011;63171;50.520;30.486;2023-05-15T04:03:46;10.13;;;8.13;;
45252;SDS011;63171;50.520;30.486;2023-05-15T04:04:36;13.73;;;8.18;;
45252;SDS011;63171;50.520;30.486;2023-05-15T04:05:26;11.85;;;7.05;;
45252;SDS011;63171;50.520;30.486;2023-05-15T04:06:17;7.95;;;6.50;;
45252;SDS011;63171;50.520;30.486;2023-05-15T04:07:07;11.25;;;7.88;;
45252;SDS011;63171;50.520;30.486;2023-05-15T04:07:58;18.15;;;9.77;;
45252;SDS011;63171;50.520;30.486;2023-05-15T04:08:48;12.75;;;8.40;;
45252;SDS011;63171;50.520;30.486;2023-05-15T04:09:41;11.68;;;7.20;;
45252;SDS011;63171;50.520;30.486;2023-05-15T04:10:31;15.25;;;7.82;;
45252;SDS011;63171;50.520;30.486;2023-05-15T04:11:21;14.98;;;8.55;;
45252;SDS011;63171;50.520;30.486;2023-05-15T04:12:12;16.48;;;8.50;;
45252;SDS011;63171;50.520;30.486;2023-05-15T04:13:02;16.02;;;9.18;;
45252;SDS011;63171;50.520;30.486;2023-05-15T04:13:52;14.63;;;8.85;;
45252;SDS011;63171;50.520;30.486;2023-05-15T04:14:43;14.77;;;9.40;;
45252;SDS011;63171;50.520;30.486;2023-05-15T04:15:33;22.67;;;8.98;;
45252;SDS011;63171;50.520;30.486;2023-05-15T04:16:25;12.82;;;8.68;;
45252;SDS011;63171;50.520;30.486;2023-05-15T04:17:15;18.02;;;9.10;;
45252;SDS011;63171;50.520;30.486;2023-05-15T04:18:06;17.17;;;9.20;;
45252;SDS011;63171;50.520;30.486;2023-05-15T04:18:56;17.40;;;8.48;;
45252;SDS011;63171;50.520;30.486;2023-05-15T04:19:46;15.50;;;8.75;;
45252;SDS011;63171;50.520;30.486;2023-05-15T04:20:36;16.40;;;10.07;;
45252;SDS011;63171;50.520;30.486;2023-05-15T04:21:27;24.55;;;10.52;;
45252;SDS011;63171;50.520;30.486;2023-05-15T04:22:16;22.95;;;10.77;;
45252;SDS011;63171;50.520;30.486;2023-05-15T04:23:07;19.13;;;11.50;;
45252;SDS011;63171;50.520;30.486;2023-05-15T04:23:57;22.10;;;12.65;;
45252;SDS011;63171;50.520;30.486;2023-05-15T04:24:48;26.05;;;12.80;;
45252;SDS011;63171;50.520;30.486;2023-05-15T04:25:37;26.35;;;11.95;;
45252;SDS011;63171;50.520;30.486;2023-05-15T04:26:30;24.70;;;12.93;;
45252;SDS011;63171;50.520;30.486;2023-05-15T04:27:20;31.05;;;11.88;;
45252;SDS011;63171;50.520;30.486;2023-05-15T04:28:11;18.75;;;12.10;;
45252;SDS011;63171;50.520;30.486;2023-05-15T04:29:01;30.10;;;12.35;;
45252;SDS011;63171;50.520;30.486;2023-05-15T04:29:51;26.42;;;11.27;;
45252;SDS011;63171;50.520;30.486;2023-05-15T04:30:41;24.15;;;11.98;;
45252;SDS011;63171;50.520;30.486;2023-05-15T04:31:33;22.10;;;11.15;;
45252;SDS011;63171;50.520;30.486;2023-05-15T04:32:23;18.50;;;11.00;;
45252;SDS011;63171;50.520;30.486;2023-05-15T04:33:13;22.38;;;11.07;;
45252;SDS011;63171;50.520;30.486;2023-05-15T04:34:03;22.20;;;10.73;;
45252;SDS011;63171;50.520;30.486;2023-05-15T04:34:54;31.30;;;12.70;;
45252;SDS011;63171;50.520;30.486;2023-05-15T04:35:44;36.40;;;13.00;;
45252;SDS011;63171;50.520;30.486;2023-05-15T04:36:36;19.92;;;11.60;;
45252;SDS011;63171;50.520;30.486;2023-05-15T04:37:25;14.23;;;11.48;;
45252;SDS011;63171;50.520;30.486;2023-05-15T04:38:15;25.25;;;11.20;;
45252;SDS011;63171;50.520;30.486;2023-05-15T04:39:06;27.85;;;12.02;;
45252;SDS011;63171;50.520;30.486;2023-05-15T04:39:57;25.83;;;11.15;;
45252;SDS011;63171;50.520;30.486;2023-05-15T04:40:48;17.80;;;10.35;;
45252;SDS011;63171;50.520;30.486;2023-05-15T04:41:37;26.48;;;10.70;;
45252;SDS011;63171;50.520;30.486;2023-05-15T04:42:28;25.45;;;11.75;;
45252;SDS011;63171;50.520;30.486;2023-05-15T04:43:18;27.08;;;11.63;;
45252;SDS011;63171;50.520;30.486;2023-05-15T04:44:09;22.40;;;11.35;;
45252;SDS011;63171;50.520;30.486;2023-05-15T04:44:58;20.38;;;8.93;;
45252;SDS011;63171;50.520;30.486;2023-05-15T04:45:49;29.10;;;11.27;;
45252;SDS011;63171;50.520;30.486;2023-05-15T04:46:40;27.60;;;10.38;;
45252;SDS011;63171;50.520;30.486;2023-05-15T04:47:31;24.83;;;11.05;;
45252;SDS011;63171;50.520;30.486;2023-05-15T04:48:20;21.98;;;10.00;;
45252;SDS011;63171;50.520;30.486;2023-05-15T04:49:11;29.15;;;11.32;;
45252;SDS011;63171;50.520;30.486;2023-05-15T04:50:00;31.05;;;11.63;;
45252;SDS011;63171;50.520;30.486;2023-05-15T04:50:51;20.23;;;11.25;;
45252;SDS011;63171;50.520;30.486;2023-05-15T04:51:41;18.88;;;10.55;;
45252;SDS011;63171;50.520;30.486;2023-05-15T04:52:31;18.40;;;12.02;;
45252;SDS011;63171;50.520;30.486;2023-05-15T04:53:22;23.90;;;11.52;;
45252;SDS011;63171;50.520;30.486;2023-05-15T04:54:12;29.25;;;11.48;;
45252;SDS011;63171;50.520;30.486;2023-05-15T04:55:03;19.20;;;10.48;;
45252;SDS011;63171;50.520;30.486;2023-05-15T04:55:54;21.67;;;9.73;;
45252;SDS011;63171;50.520;30.486;2023-05-15T04:56:45;19.85;;;10.63;;
45252;SDS011;63171;50.520;30.486;2023-05-15T04:57:35;25.58;;;9.55;;
45252;SDS011;63171;50.520;30.486;2023-05-15T04:58:25;21.85;;;11.05;;
45252;SDS011;63171;50.520;30.486;2023-05-15T04:59:15;24.80;;;9.73;;
45252;SDS011;63171;50.520;30.486;2023-05-15T05:00:06;17.63;;;9.50;;
45252;SDS011;63171;50.520;30.486;2023-05-15T05:00:59;20.80;;;9.88;;
45252;SDS011;63171;50.520;30.486;2023-05-15T05:01:52;23.20;;;9.88;;
45252;SDS011;63171;50.520;30.486;2023-05-15T05:02:41;16.33;;;9.25;;
45252;SDS011;63171;50.520;30.486;2023-05-15T05:03:32;18.67;;;10.00;;
45252;SDS011;63171;50.520;30.486;2023-05-15T05:04:22;18.02;;;11.05;;
45252;SDS011;63171;50.520;30.486;2023-05-15T05:05:13;22.25;;;10.52;;
45252;SDS011;63171;50.520;30.486;2023-05-15T05:06:03;22.65;;;11.65;;
45252;SDS011;63171;50.520;30.486;2023-05-15T05:06:54;23.50;;;10.43;;
45252;SDS011;63171;50.520;30.486;2023-05-15T05:07:43;24.00;;;10.68;;
45252;SDS011;63171;50.520;30.486;2023-05-15T05:08:34;16.90;;;9.00;;
45252;SDS011;63171;50.520;30.486;2023-05-15T05:09:24;17.20;;;8.35;;
45252;SDS011;63171;50.520;30.486;2023-05-15T05:10:15;20.58;;;9.18;;
45252;SDS011;63171;50.520;30.486;2023-05-15T05:11:05;20.95;;;7.82;;